Time;durP1;ratioP1;P1;durP2;ratioP2;P2;SDS_P1;SDS_P2;PMS_P1;PMS_P2;Temp;Humidity;BMP_temperature;BMP_pressure;BME280_temperature;BME280_humidity;BME280_pressure;Samples;Min_cycle;Max_cycle;Signal;HPM_P1;HPM_P2
2022/02/28 00:02:28;;;;;;;11.68;8.32;;;2.10;99.90;;;;;;5041138;28;20045;-64
2022/02/28 00:04:55;;;;;;;17.50;9.27;;;2.10;99.90;;;;;;5043470;28;20063;-64
2022/02/28 00:07:21;;;;;;;13.70;8.70;;;2.10;99.90;;;;;;5043957;28;20391;-64
2022/02/28 00:09:47;;;;;;;13.50;9.00;;;2.10;99.90;;;;;;5044623;28;20123;-64
2022/02/28 00:12:13;;;;;;;11.45;7.78;;;2.10;99.90;;;;;;5038657;28;20045;-64
2022/02/28 00:14:39;;;;;;;13.57;8.60;;;2.10;99.90;;;;;;5025655;28;20091;-64
2022/02/28 00:17:05;;;;;;;13.57;8.15;;;2.10;99.90;;;;;;5026898;28;20079;-64
2022/02/28 00:19:32;;;;;;;15.90;9.30;;;2.10;99.90;;;;;;5033225;28;20716;-64
2022/02/28 00:21:58;;;;;;;14.65;8.85;;;2.10;99.90;;;;;;5014345;28;20086;-64
2022/02/28 00:24:24;;;;;;;12.95;8.55;;;2.00;99.90;;;;;;5039652;28;20053;-64
2022/02/28 00:26:50;;;;;;;14.25;8.73;;;2.00;99.90;;;;;;5030916;28;20416;-64
2022/02/28 00:29:16;;;;;;;13.15;9.30;;;2.00;99.90;;;;;;5042462;28;20557;-64
2022/02/28 00:31:42;;;;;;;11.00;8.10;;;2.00;99.90;;;;;;5043630;28;20407;-64
2022/02/28 00:34:08;;;;;;;16.58;8.60;;;2.00;99.90;;;;;;5042923;28;20055;-64
2022/02/28 00:36:37;;;;;;;15.52;9.20;;;1.90;99.90;;;;;;5043468;28;20052;-65
2022/02/28 00:39:04;;;;;;;13.25;8.43;;;1.90;99.90;;;;;;5042941;28;20056;-64
2022/02/28 00:41:31;;;;;;;13.20;8.98;;;1.90;99.90;;;;;;5027081;28;20582;-64
2022/02/28 00:43:57;;;;;;;12.90;8.55;;;1.80;99.90;;;;;;5041727;28;20044;-64
2022/02/28 00:46:23;;;;;;;12.25;8.63;;;1.80;99.90;;;;;;5023500;28;20045;-64
2022/02/28 00:48:50;;;;;;;14.82;9.00;;;1.80;99.90;;;;;;5023585;28;20045;-64
2022/02/28 00:51:17;;;;;;;16.70;9.25;;;1.80;99.90;;;;;;5044002;28;20068;-64
2022/02/28 00:58:56;;;;;;;13.30;8.75;;;1.80;99.90;;;;;;5034834;28;20047;-64
2022/02/28 01:01:22;;;;;;;13.32;8.55;;;1.80;99.90;;;;;;5024818;28;22020;-64
2022/02/28 01:03:48;;;;;;;15.90;9.73;;;1.80;99.90;;;;;;5043874;28;20385;-64
2022/02/28 01:06:15;;;;;;;16.52;9.18;;;1.70;99.90;;;;;;5042588;28;20088;-64
2022/02/28 01:08:41;;;;;;;13.45;9.65;;;1.70;99.90;;;;;;5042840;28;20064;-64
2022/02/28 01:11:07;;;;;;;15.55;9.82;;;1.70;99.90;;;;;;5044193;28;20087;-64
2022/02/28 01:13:34;;;;;;;12.93;8.55;;;1.70;99.90;;;;;;5023201;28;20098;-62
2022/02/28 01:16:00;;;;;;;14.50;9.18;;;1.70;99.90;;;;;;5042110;28;20089;-62
2022/02/28 01:18:26;;;;;;;15.18;9.50;;;1.70;99.90;;;;;;5044916;28;20047;-62
2022/02/28 01:20:53;;;;;;;14.75;9.43;;;1.80;99.90;;;;;;5040729;28;20423;-62
2022/02/28 01:23:19;;;;;;;12.38;8.60;;;1.80;99.90;;;;;;5045305;28;20049;-62
2022/02/28 01:25:45;;;;;;;13.23;9.18;;;1.70;99.90;;;;;;5040667;28;20045;-62
2022/02/28 01:28:12;;;;;;;12.68;10.27;;;1.70;99.90;;;;;;5042787;28;20077;-62
2022/02/28 01:30:39;;;;;;;14.55;8.32;;;1.70;99.90;;;;;;5024798;28;20045;-62
2022/02/28 01:33:06;;;;;;;13.75;9.23;;;1.60;99.90;;;;;;5040194;28;20049;-62
2022/02/28 01:35:33;;;;;;;12.43;8.90;;;1.60;99.90;;;;;;5008672;28;20059;-62
2022/02/28 01:37:59;;;;;;;12.23;9.15;;;1.60;99.90;;;;;;5043613;28;20408;-62
2022/02/28 01:40:25;;;;;;;16.10;9.48;;;1.60;99.90;;;;;;5043920;28;20040;-62
2022/02/28 01:42:52;;;;;;;13.40;9.27;;;1.50;99.90;;;;;;5040531;28;20049;-62
2022/02/28 01:45:22;;;;;;;14.35;8.77;;;1.50;99.90;;;;;;5007700;28;20116;-62
2022/02/28 01:47:56;;;;;;;14.43;8.60;;;1.50;99.90;;;;;;5035375;28;20037;-62
2022/02/28 01:50:25;;;;;;;12.52;8.77;;;1.50;99.90;;;;;;5042493;28;20049;-63
2022/02/28 01:52:51;;;;;;;15.75;9.70;;;1.50;99.90;;;;;;5024864;28;20152;-62
2022/02/28 01:55:19;;;;;;;13.77;9.27;;;1.40;99.90;;;;;;5026093;28;20857;-62
2022/02/28 01:57:46;;;;;;;14.27;9.05;;;1.40;99.90;;;;;;5058868;28;20049;-62
2022/02/28 02:00:19;;;;;;;16.75;9.00;;;1.40;99.90;;;;;;5043519;28;20797;-62
2022/02/28 02:02:46;;;;;;;14.57;9.13;;;1.40;99.90;;;;;;5041873;28;20477;-62
2022/02/28 02:05:12;;;;;;;14.68;9.52;;;1.40;99.90;;;;;;5044813;28;20048;-64
2022/02/28 02:07:39;;;;;;;15.23;9.52;;;1.40;99.90;;;;;;5026413;28;20041;-64
2022/02/28 02:10:08;;;;;;;12.63;8.80;;;1.40;99.90;;;;;;5043301;28;20052;-64
2022/02/28 02:12:35;;;;;;;15.48;9.13;;;1.40;99.90;;;;;;5041866;28;20040;-64
2022/02/28 02:15:04;;;;;;;17.75;10.10;;;1.30;99.90;;;;;;5041505;28;20049;-64
2022/02/28 02:17:30;;;;;;;13.15;8.52;;;1.30;99.90;;;;;;5006378;28;20519;-65
2022/02/28 02:19:57;;;;;;;12.73;8.82;;;1.40;99.90;;;;;;5038465;28;20049;-65
2022/02/28 02:22:23;;;;;;;15.82;9.35;;;1.40;99.90;;;;;;5025520;28;20074;-64
2022/02/28 02:24:50;;;;;;;12.35;9.02;;;1.40;99.90;;;;;;5042005;28;20110;-65
2022/02/28 02:27:17;;;;;;;13.98;10.25;;;1.40;99.90;;;;;;5024422;28;20203;-65
2022/02/28 02:29:44;;;;;;;13.32;8.32;;;1.40;99.90;;;;;;5041839;28;20056;-65
2022/02/28 02:32:13;;;;;;;17.23;10.20;;;1.30;99.90;;;;;;5058587;28;20116;-65
2022/02/28 02:34:41;;;;;;;15.27;9.50;;;1.20;99.90;;;;;;5038364;28;20421;-65
2022/02/28 02:37:07;;;;;;;16.85;9.85;;;1.20;99.90;;;;;;5042385;28;20048;-65
2022/02/28 02:39:38;;;;;;;14.82;9.25;;;1.30;99.90;;;;;;5026013;28;20144;-65
2022/02/28 02:42:04;;;;;;;17.63;10.80;;;1.20;99.90;;;;;;5042376;28;20492;-65
2022/02/28 02:44:32;;;;;;;13.32;9.77;;;1.20;99.90;;;;;;5041478;28;20052;-65
2022/02/28 02:46:58;;;;;;;18.67;8.93;;;1.20;99.90;;;;;;5006602;28;20075;-65
2022/02/28 02:49:34;;;;;;;12.70;8.98;;;1.30;99.90;;;;;;5041363;28;20516;-65
2022/02/28 02:52:01;;;;;;;17.42;9.80;;;1.30;99.90;;;;;;5021700;28;20164;-63
2022/02/28 02:54:32;;;;;;;13.43;9.15;;;1.20;99.90;;;;;;5034353;28;20091;-62
2022/02/28 02:56:58;;;;;;;14.38;9.60;;;1.20;99.90;;;;;;5026023;28;20088;-62
2022/02/28 02:59:24;;;;;;;15.18;9.82;;;1.10;99.90;;;;;;5030020;28;20504;-62
2022/02/28 03:01:51;;;;;;;21.13;9.95;;;1.10;99.90;;;;;;5028335;28;20049;-62
2022/02/28 03:04:17;;;;;;;14.07;10.05;;;1.00;99.90;;;;;;5027288;28;20045;-62
2022/02/28 03:06:44;;;;;;;15.88;10.20;;;1.00;99.90;;;;;;5028176;28;20456;-62
2022/02/28 03:09:12;;;;;;;13.85;9.43;;;1.00;99.90;;;;;;5042584;28;20049;-62
2022/02/28 03:11:41;;;;;;;14.30;9.55;;;1.00;99.90;;;;;;5017973;28;20072;-62
2022/02/28 03:14:07;;;;;;;13.20;10.38;;;1.00;99.90;;;;;;5044134;28;20111;-62
2022/02/28 03:16:33;;;;;;;12.75;10.20;;;1.00;99.90;;;;;;5044993;28;20053;-62
2022/02/28 03:19:00;;;;;;;15.35;10.48;;;1.00;99.90;;;;;;5043497;28;20048;-65
2022/02/28 03:21:27;;;;;;;16.98;10.75;;;1.00;99.90;;;;;;5026955;28;20056;-65
2022/02/28 03:23:54;;;;;;;14.50;10.75;;;1.00;99.90;;;;;;5012632;28;20041;-65
2022/02/28 03:26:21;;;;;;;14.45;9.70;;;1.00;99.90;;;;;;5029898;28;20060;-65
2022/02/28 03:28:48;;;;;;;17.98;10.20;;;1.00;99.90;;;;;;5035891;28;20079;-65
2022/02/28 03:31:15;;;;;;;17.23;10.05;;;0.90;99.90;;;;;;5040045;28;20078;-64
2022/02/28 03:33:41;;;;;;;18.20;10.73;;;0.90;99.90;;;;;;5045025;28;20053;-62
2022/02/28 03:36:07;;;;;;;14.63;9.43;;;0.90;99.90;;;;;;5044894;28;20044;-64
2022/02/28 03:38:37;;;;;;;16.70;10.27;;;0.90;99.90;;;;;;5031763;28;20384;-65
2022/02/28 03:41:04;;;;;;;17.08;9.63;;;0.80;99.90;;;;;;5044712;28;20060;-64
2022/02/28 03:43:30;;;;;;;13.43;10.35;;;0.80;99.90;;;;;;5027248;28;20695;-65
2022/02/28 03:46:02;;;;;;;;;;;0.70;99.90;;;;;;5045486;28;20060;-64
2022/02/28 03:48:37;;;;;;;15.98;9.88;;;0.70;99.90;;;;;;5027724;28;19926;-64
2022/02/28 03:51:23;;;;;;;19.38;9.70;;;0.70;99.90;;;;;;5041772;28;20695;-64
2022/02/28 03:53:50;;;;;;;16.35;10.63;;;0.60;99.90;;;;;;5043385;28;20065;-64
2022/02/28 03:56:16;;;;;;;14.23;10.13;;;0.60;99.90;;;;;;5044795;28;20057;-64
2022/02/28 03:58:42;;;;;;;14.95;10.20;;;0.60;99.90;;;;;;5045106;28;20080;-64
2022/02/28 04:01:09;;;;;;;16.50;11.43;;;0.60;99.90;;;;;;5045015;28;20060;-65
2022/02/28 04:03:36;;;;;;;16.40;10.95;;;0.60;99.90;;;;;;5027170;28;20452;-64
2022/02/28 04:06:03;;;;;;;14.85;10.25;;;0.50;99.90;;;;;;5027771;28;20150;-64
2022/02/28 04:08:29;;;;;;;16.27;10.50;;;0.60;99.90;;;;;;5011765;28;20072;-65
2022/02/28 04:10:55;;;;;;;15.35;10.65;;;0.50;99.90;;;;;;5043142;28;20088;-62
2022/02/28 04:13:21;;;;;;;17.83;10.43;;;0.50;99.90;;;;;;5043594;28;20569;-62
2022/02/28 04:15:47;;;;;;;20.25;10.88;;;0.40;99.90;;;;;;5043575;28;20055;-62
2022/02/28 04:18:14;;;;;;;15.73;10.80;;;0.40;99.90;;;;;;5044117;28;20082;-65
2022/02/28 04:21:15;;;;;;;15.10;10.52;;;0.30;99.90;;;;;;5026888;28;20781;-65
2022/02/28 04:23:41;;;;;;;14.75;9.60;;;0.30;99.90;;;;;;5010709;28;20060;-65
2022/02/28 04:26:07;;;;;;;15.68;10.32;;;0.30;99.90;;;;;;4985856;28;20547;-64
2022/02/28 04:28:34;;;;;;;15.63;10.95;;;0.20;99.90;;;;;;5043592;28;20119;-64
2022/02/28 04:31:01;;;;;;;17.23;11.88;;;0.20;99.90;;;;;;5013872;28;20060;-64
2022/02/28 04:33:27;;;;;;;18.05;11.10;;;0.20;99.90;;;;;;5025724;28;20059;-64
2022/02/28 04:35:53;;;;;;;16.38;11.32;;;0.20;99.90;;;;;;5011136;28;20053;-64
2022/02/28 04:38:21;;;;;;;15.48;10.18;;;0.10;99.90;;;;;;5026740;28;20798;-64
2022/02/28 04:40:47;;;;;;;16.15;11.10;;;0.10;99.90;;;;;;5027584;28;20790;-64
2022/02/28 04:43:14;;;;;;;15.20;11.30;;;0.10;99.90;;;;;;5023609;28;20061;-64
2022/02/28 04:45:40;;;;;;;18.38;11.57;;;0.00;99.90;;;;;;5040131;28;20448;-65
2022/02/28 04:48:06;;;;;;;14.88;10.13;;;0.00;99.90;;;;;;5026753;28;20053;-66
2022/02/28 04:50:55;;;;;;;17.02;11.35;;;-0.10;99.90;;;;;;5043649;28;20780;-65
2022/02/28 04:53:25;;;;;;;14.73;11.30;;;-0.10;99.90;;;;;;5041267;28;20069;-64
2022/02/28 04:55:52;;;;;;;18.25;10.95;;;-0.20;99.90;;;;;;5044039;28;20091;-65
2022/02/28 04:58:19;;;;;;;21.15;12.55;;;-0.20;99.90;;;;;;5043322;28;20045;-65
2022/02/28 05:01:21;;;;;;;17.45;10.82;;;-0.30;99.90;;;;;;5003300;28;20057;-64
2022/02/28 05:03:49;;;;;;;16.98;11.82;;;-0.30;99.90;;;;;;5029841;28;20052;-64
2022/02/28 05:06:16;;;;;;;15.43;11.20;;;-0.30;99.90;;;;;;5027653;28;20085;-65
2022/02/28 05:08:47;;;;;;;16.30;11.25;;;-0.30;99.90;;;;;;5026882;28;20045;-64
2022/02/28 05:11:16;;;;;;;15.73;11.80;;;-0.30;99.90;;;;;;5042730;28;20507;-64
2022/02/28 05:13:42;;;;;;;14.35;11.27;;;-0.30;99.90;;;;;;5025453;28;20110;-64
2022/02/28 05:16:09;;;;;;;15.38;10.50;;;-0.20;99.90;;;;;;5042072;28;21714;-64
2022/02/28 05:18:36;;;;;;;16.75;11.43;;;-0.30;99.90;;;;;;5006957;28;20128;-64
2022/02/28 05:21:02;;;;;;;18.10;11.93;;;-0.30;99.90;;;;;;5040971;28;20053;-65
2022/02/28 05:23:31;;;;;;;15.00;11.65;;;-0.20;99.90;;;;;;5037130;28;20048;-64
2022/02/28 05:25:57;;;;;;;14.60;10.13;;;-0.20;99.90;;;;;;5008389;28;20709;-64
2022/02/28 05:28:24;;;;;;;18.33;11.07;;;-0.30;99.90;;;;;;5043887;28;20051;-65
2022/02/28 05:30:51;;;;;;;20.25;11.85;;;-0.30;99.90;;;;;;5043353;28;20404;-63
2022/02/28 05:33:21;;;;;;;19.90;11.27;;;-0.30;99.90;;;;;;5041954;28;20049;-65
2022/02/28 05:35:52;;;;;;;16.23;11.52;;;-0.30;99.90;;;;;;5026199;28;20060;-61
2022/02/28 05:38:22;;;;;;;20.83;11.40;;;-0.30;99.90;;;;;;5040999;28;20057;-62
2022/02/28 05:40:53;;;;;;;16.92;12.15;;;-0.40;99.90;;;;;;5026205;28;20056;-62
2022/02/28 05:43:27;;;;;;;19.10;12.05;;;-0.30;99.90;;;;;;5026908;28;20095;-65
2022/02/28 05:45:55;;;;;;;20.95;13.02;;;-0.30;99.90;;;;;;5041016;28;20057;-64
2022/02/28 05:48:33;;;;;;;16.60;11.15;;;-0.40;99.90;;;;;;5039832;28;20057;-64
2022/02/28 05:50:59;;;;;;;20.10;11.75;;;-0.30;99.90;;;;;;5024004;28;20057;-64
2022/02/28 05:53:26;;;;;;;17.15;11.80;;;-0.30;99.90;;;;;;5038635;28;20404;-65
2022/02/28 05:55:52;;;;;;;16.08;12.07;;;-0.30;99.90;;;;;;5018248;28;20075;-64
2022/02/28 05:58:18;;;;;;;18.38;11.45;;;-0.30;99.90;;;;;;5032847;28;20052;-64
2022/02/28 06:00:44;;;;;;;18.13;11.82;;;-0.40;99.90;;;;;;5030363;28;20049;-64
2022/02/28 06:03:10;;;;;;;18.02;12.07;;;-0.40;99.90;;;;;;5035622;28;20044;-64
2022/02/28 06:05:36;;;;;;;19.13;12.55;;;-0.30;99.90;;;;;;5041313;28;20543;-64
2022/02/28 06:08:02;;;;;;;17.00;12.15;;;-0.40;99.90;;;;;;5041934;28;20059;-64
2022/02/28 06:10:28;;;;;;;22.05;13.02;;;-0.40;99.90;;;;;;5029709;28;20040;-64
2022/02/28 06:12:55;;;;;;;16.17;12.60;;;-0.40;99.90;;;;;;5042208;28;20143;-64
2022/02/28 06:15:21;;;;;;;15.93;11.95;;;-0.40;99.90;;;;;;5041908;28;20048;-62
2022/02/28 06:17:47;;;;;;;17.33;12.35;;;-0.40;99.90;;;;;;5043688;28;20056;-62
2022/02/28 06:20:13;;;;;;;17.23;12.38;;;-0.40;99.90;;;;;;5026165;28;20052;-62
2022/02/28 06:22:39;;;;;;;19.92;13.20;;;-0.40;99.90;;;;;;5036969;28;20088;-62
2022/02/28 06:25:07;;;;;;;17.40;12.70;;;-0.40;99.90;;;;;;5032701;28;20053;-62
2022/02/28 06:27:33;;;;;;;17.60;12.80;;;-0.40;99.90;;;;;;5035802;28;20049;-62
2022/02/28 06:29:59;;;;;;;21.38;13.05;;;-0.40;99.90;;;;;;5025960;28;20071;-63
2022/02/28 06:32:25;;;;;;;20.15;13.05;;;-0.50;99.90;;;;;;5043112;28;20083;-62
2022/02/28 06:34:51;;;;;;;19.58;13.25;;;-0.50;99.90;;;;;;5008329;28;20044;-62
2022/02/28 06:37:17;;;;;;;17.48;12.32;;;-0.50;99.90;;;;;;5045353;28;20571;-65
2022/02/28 06:39:45;;;;;;;20.67;14.05;;;-0.50;99.90;;;;;;5051511;28;20534;-65
2022/02/28 06:42:11;;;;;;;20.20;13.07;;;-0.40;99.90;;;;;;5055376;28;20056;-62
2022/02/28 06:44:37;;;;;;;20.58;12.50;;;-0.40;99.90;;;;;;5044441;28;20093;-62
2022/02/28 06:47:07;;;;;;;18.88;13.50;;;-0.40;99.90;;;;;;5032198;28;20044;-62
2022/02/28 06:49:33;;;;;;;18.92;12.70;;;-0.40;99.90;;;;;;5049543;28;20053;-63
2022/02/28 06:51:59;;;;;;;18.95;13.15;;;-0.30;99.90;;;;;;5048881;28;20090;-60
2022/02/28 06:54:25;;;;;;;22.77;13.93;;;-0.30;99.90;;;;;;5045450;28;20484;-61
2022/02/28 06:56:51;;;;;;;19.20;13.48;;;-0.20;99.90;;;;;;5011313;28;20769;-64
2022/02/28 06:59:17;;;;;;;21.98;13.02;;;-0.10;99.90;;;;;;4998559;28;20144;-62
2022/02/28 07:01:44;;;;;;;19.70;14.38;;;-0.10;99.90;;;;;;5029629;28;20792;-63
2022/02/28 07:04:35;;;;;;;16.45;12.57;;;-0.10;99.90;;;;;;5032423;28;20080;-60
2022/02/28 07:07:02;;;;;;;20.40;13.07;;;-0.10;99.90;;;;;;5045281;28;20629;-61
2022/02/28 07:09:29;;;;;;;18.27;12.77;;;0.00;99.90;;;;;;5043071;28;20837;-61
2022/02/28 07:11:55;;;;;;;19.33;13.23;;;0.00;99.90;;;;;;5037548;28;20049;-62
2022/02/28 07:14:21;;;;;;;17.35;12.88;;;0.00;99.90;;;;;;5059567;28;20161;-61
2022/02/28 07:16:48;;;;;;;18.42;13.15;;;0.10;99.90;;;;;;5036460;28;20123;-62
2022/02/28 07:19:14;;;;;;;18.98;12.85;;;0.20;99.90;;;;;;5025396;28;20056;-62
2022/02/28 07:21:40;;;;;;;17.60;12.32;;;0.30;99.90;;;;;;5038957;28;20056;-62
2022/02/28 07:24:06;;;;;;;19.05;13.32;;;0.50;99.90;;;;;;5024871;28;20080;-62
2022/02/28 07:26:34;;;;;;;18.75;13.65;;;0.70;99.90;;;;;;5042585;28;20059;-64
2022/02/28 07:29:00;;;;;;;16.45;11.90;;;0.80;99.90;;;;;;5024292;28;20123;-63
2022/02/28 07:31:27;;;;;;;17.15;12.38;;;1.00;99.90;;;;;;5040146;28;20045;-64
2022/02/28 07:33:53;;;;;;;16.75;12.20;;;1.20;99.90;;;;;;5009089;28;20071;-64
2022/02/28 07:36:19;;;;;;;16.73;12.25;;;1.30;99.90;;;;;;5044596;28;20094;-64
2022/02/28 07:38:45;;;;;;;16.83;12.70;;;1.40;99.90;;;;;;5043470;28;20045;-64
2022/02/28 07:41:11;;;;;;;20.40;12.63;;;1.60;99.90;;;;;;5026044;28;20048;-64
2022/02/28 07:43:40;;;;;;;16.50;11.93;;;1.80;99.90;;;;;;5038600;28;20048;-64
2022/02/28 07:46:06;;;;;;;14.05;11.10;;;2.20;99.90;;;;;;5041827;28;20045;-62
2022/02/28 07:48:32;;;;;;;13.88;11.30;;;2.70;99.90;;;;;;5041567;28;20033;-62
2022/02/28 07:50:58;;;;;;;15.88;12.18;;;3.20;99.90;;;;;;5044178;28;20049;-63
2022/02/28 07:53:24;;;;;;;17.80;11.52;;;3.70;99.90;;;;;;5045849;28;20060;-62
2022/02/28 07:55:51;;;;;;;15.93;11.25;;;4.20;99.90;;;;;;5045341;28;20064;-65
2022/02/28 07:58:17;;;;;;;13.30;10.18;;;4.60;99.90;;;;;;5011038;28;20049;-65
2022/02/28 08:00:43;;;;;;;12.05;10.27;;;5.20;99.90;;;;;;5040881;28;20048;-65
2022/02/28 08:03:09;;;;;;;16.05;11.20;;;5.60;99.90;;;;;;5025476;28;20523;-62
2022/02/28 08:05:35;;;;;;;13.52;10.75;;;5.90;99.90;;;;;;5026180;28;20114;-65
2022/02/28 08:08:02;;;;;;;13.15;9.98;;;6.20;99.90;;;;;;5042913;28;20140;-62
2022/02/28 08:10:28;;;;;;;12.93;10.25;;;6.60;99.90;;;;;;5042828;28;20053;-65
2022/02/28 08:12:56;;;;;;;13.52;9.95;;;7.10;99.90;;;;;;5050570;28;20049;-65
2022/02/28 08:15:22;;;;;;;13.18;10.20;;;7.40;99.90;;;;;;5041039;28;20052;-65
2022/02/28 08:17:48;;;;;;;14.10;10.48;;;7.40;99.90;;;;;;5040711;28;20045;-65
2022/02/28 08:20:14;;;;;;;13.10;10.45;;;7.90;99.90;;;;;;5024620;28;20055;-65
2022/02/28 08:22:40;;;;;;;13.93;10.30;;;8.10;99.90;;;;;;5040337;28;20041;-65
2022/02/28 08:25:07;;;;;;;13.93;11.18;;;8.20;99.90;;;;;;5025492;28;20701;-62
2022/02/28 08:27:34;;;;;;;11.60;10.32;;;8.50;99.90;;;;;;5041211;28;20067;-62
2022/02/28 08:30:00;;;;;;;13.65;9.25;;;8.60;99.90;;;;;;5042754;28;20148;-62
2022/02/28 08:32:26;;;;;;;13.15;9.82;;;9.00;99.90;;;;;;5009491;28;20045;-63
2022/02/28 08:34:52;;;;;;;13.13;10.35;;;9.20;99.90;;;;;;5027116;28;20032;-63
2022/02/28 08:37:18;;;;;;;12.32;9.82;;;9.20;99.90;;;;;;5027937;28;20056;-63
2022/02/28 08:39:44;;;;;;;13.23;10.10;;;9.60;99.90;;;;;;5028443;28;20399;-62
2022/02/28 08:42:11;;;;;;;14.25;10.20;;;9.70;99.90;;;;;;5045683;28;20068;-62
2022/02/28 08:44:37;;;;;;;12.30;10.07;;;9.80;99.90;;;;;;5044593;28;20041;-62
2022/02/28 08:47:04;;;;;;;12.63;9.75;;;10.20;99.90;;;;;;5010514;28;20049;-62
2022/02/28 08:49:30;;;;;;;10.80;9.48;;;10.50;99.90;;;;;;5045188;28;20041;-62
2022/02/28 08:51:57;;;;;;;12.25;9.48;;;10.80;94.10;;;;;;5043702;28;20053;-65
2022/02/28 08:54:23;;;;;;;14.23;9.48;;;10.80;84.90;;;;;;5024595;28;20543;-65
2022/02/28 08:56:49;;;;;;;13.05;9.65;;;11.20;72.40;;;;;;5043105;28;20044;-64
2022/02/28 08:59:15;;;;;;;12.02;9.48;;;11.10;64.90;;;;;;5044901;28;20060;-65
2022/02/28 09:01:41;;;;;;;11.13;9.27;;;11.60;68.50;;;;;;5042918;28;20059;-64
2022/02/28 09:04:08;;;;;;;11.25;9.23;;;12.10;64.20;;;;;;5043552;28;20041;-64
2022/02/28 09:06:34;;;;;;;14.80;9.70;;;12.10;61.50;;;;;;5036255;28;20481;-65
2022/02/28 09:09:00;;;;;;;11.70;9.05;;;12.30;61.80;;;;;;5025542;28;20052;-63
2022/02/28 09:11:26;;;;;;;10.70;9.70;;;12.60;61.30;;;;;;5042811;28;20754;-63
2022/02/28 09:13:53;;;;;;;10.82;9.70;;;12.60;60.20;;;;;;5043631;28;20131;-62
2022/02/28 09:16:20;;;;;;;12.70;9.13;;;12.60;59.00;;;;;;5044213;28;20503;-63
2022/02/28 09:18:47;;;;;;;10.32;8.07;;;12.90;59.20;;;;;;5026068;28;20120;-62
2022/02/28 09:21:13;;;;;;;11.18;9.40;;;12.70;57.60;;;;;;5042483;28;20045;-62
2022/02/28 09:23:39;;;;;;;10.90;8.10;;;12.80;56.80;;;;;;5009273;28;20090;-62
2022/02/28 09:26:05;;;;;;;9.45;7.70;;;13.00;57.20;;;;;;5042183;28;20084;-63
2022/02/28 09:28:32;;;;;;;8.88;7.85;;;13.30;56.00;;;;;;5025441;28;20064;-63
2022/02/28 09:30:58;;;;;;;10.82;8.20;;;13.20;55.00;;;;;;5039205;28;20163;-62
2022/02/28 09:33:24;;;;;;;10.48;8.73;;;13.10;53.00;;;;;;5042910;28;20076;-62
2022/02/28 09:35:51;;;;;;;10.25;7.80;;;13.00;53.50;;;;;;5043170;28;20053;-62
2022/02/28 09:38:18;;;;;;;8.85;7.43;;;12.80;52.60;;;;;;5043515;28;20076;-61
2022/02/28 09:40:46;;;;;;;10.05;8.00;;;12.60;53.10;;;;;;5043660;28;20064;-62
2022/02/28 09:43:34;;;;;;;9.32;8.02;;;12.60;53.10;;;;;;5041837;28;20053;-62
2022/02/28 09:46:19;;;;;;;9.25;7.32;;;12.40;53.10;;;;;;5044113;28;20057;-62
2022/02/28 09:49:04;;;;;;;10.25;7.93;;;12.70;53.40;;;;;;5044651;28;20424;-62
2022/02/28 09:51:49;;;;;;;9.23;7.60;;;12.90;53.30;;;;;;5043024;28;20068;-62
2022/02/28 09:54:38;;;;;;;11.15;8.52;;;13.00;52.10;;;;;;5031106;28;20578;-62
2022/02/28 09:57:23;;;;;;;11.85;8.18;;;13.30;52.60;;;;;;5025202;28;20084;-62
2022/02/28 09:59:59;;;;;;;10.82;9.23;;;13.40;51.20;;;;;;5025320;28;20053;-62
2022/02/28 10:02:28;;;;;;;10.98;8.38;;;13.80;51.80;;;;;;5042503;28;20044;-62
2022/02/28 10:04:56;;;;;;;9.07;8.15;;;14.00;52.00;;;;;;5008956;28;20052;-62
2022/02/28 10:07:25;;;;;;;10.38;7.88;;;14.20;50.70;;;;;;5025495;28;20063;-62
2022/02/28 10:10:09;;;;;;;10.45;7.70;;;13.50;49.90;;;;;;5043930;28;20127;-62
2022/02/28 10:12:36;;;;;;;10.45;8.50;;;14.00;50.10;;;;;;5042963;28;20045;-61
2022/02/28 10:15:08;;;;;;;11.20;8.50;;;14.20;51.00;;;;;;5043584;28;20250;-62
2022/02/28 10:17:48;;;;;;;12.65;7.55;;;14.30;49.20;;;;;;5042163;28;20052;-62
2022/02/28 10:20:36;;;;;;;9.30;7.53;;;13.80;46.70;;;;;;5041746;28;20471;-61
2022/02/28 10:23:09;;;;;;;10.00;7.55;;;13.60;47.10;;;;;;5009168;28;20139;-62
2022/02/28 10:25:57;;;;;;;9.07;7.95;;;13.90;48.00;;;;;;5020804;28;20164;-62
2022/02/28 10:28:46;;;;;;;8.88;7.63;;;14.00;49.00;;;;;;5011935;28;20466;-61
2022/02/28 10:31:40;;;;;;;8.98;7.03;;;13.70;47.70;;;;;;5032132;28;20508;-62
2022/02/28 10:37:48;;;;;;;10.07;7.75;;;13.70;48.10;;;;;;5043220;28;20118;-62
2022/02/28 10:40:14;;;;;;;11.18;8.30;;;13.90;47.90;;;;;;5041608;28;20059;-61
2022/02/28 10:42:49;;;;;;;11.07;8.07;;;14.30;47.30;;;;;;5043650;28;20442;-63
2022/02/28 10:45:21;;;;;;;9.90;7.60;;;14.10;46.40;;;;;;5025630;28;20056;-61
2022/02/28 10:47:49;;;;;;;10.52;7.68;;;14.50;46.80;;;;;;5042172;28;20162;-62
2022/02/28 10:50:38;;;;;;;9.80;7.75;;;14.60;46.20;;;;;;5008946;28;20634;-61
2022/02/28 10:53:12;;;;;;;9.85;7.93;;;14.80;45.50;;;;;;5043594;28;20052;-61
2022/02/28 10:55:38;;;;;;;8.80;7.43;;;14.70;45.60;;;;;;5042667;28;20095;-61
2022/02/28 10:58:06;;;;;;;9.27;8.27;;;15.00;47.00;;;;;;5042986;28;20037;-64
2022/02/28 11:00:59;;;;;;;11.77;8.20;;;15.30;46.00;;;;;;5043751;28;20535;-64
2022/02/28 11:03:27;;;;;;;8.55;7.60;;;15.20;43.80;;;;;;5042413;28;20088;-64
2022/02/28 11:05:58;;;;;;;10.63;8.07;;;15.10;44.60;;;;;;5025182;28;20061;-64
2022/02/28 11:08:26;;;;;;;9.23;8.07;;;15.10;44.40;;;;;;5024782;28;20045;-64
2022/02/28 11:11:06;;;;;;;9.55;7.78;;;15.20;44.40;;;;;;5041772;28;20045;-64
2022/02/28 11:13:32;;;;;;;12.95;9.10;;;15.20;43.40;;;;;;5042736;28;20056;-64
2022/02/28 11:15:58;;;;;;;9.05;8.02;;;15.20;44.60;;;;;;5045055;28;20064;-64
2022/02/28 11:18:25;;;;;;;11.50;8.70;;;15.10;44.20;;;;;;5045143;28;20053;-65
2022/02/28 11:20:55;;;;;;;9.77;8.43;;;15.10;43.70;;;;;;5045526;28;20450;-67
2022/02/28 11:23:22;;;;;;;12.65;8.25;;;15.20;43.90;;;;;;5047214;28;20123;-63
2022/02/28 11:25:49;;;;;;;10.60;8.10;;;15.50;44.10;;;;;;5028882;28;20047;-64
2022/02/28 11:28:17;;;;;;;9.95;8.85;;;15.50;44.10;;;;;;5026599;28;20045;-64
2022/02/28 11:30:43;;;;;;;9.80;8.35;;;15.60;44.30;;;;;;5044638;28;20059;-64
2022/02/28 11:33:13;;;;;;;10.50;8.15;;;16.10;44.80;;;;;;5045221;28;20134;-64
2022/02/28 11:35:46;;;;;;;10.00;8.60;;;15.90;43.90;;;;;;5046977;28;20072;-64
2022/02/28 11:38:15;;;;;;;9.38;8.02;;;16.30;43.90;;;;;;5046324;28;20049;-63
2022/02/28 11:41:05;;;;;;;10.57;9.23;;;16.10;43.60;;;;;;5045682;28;20052;-64
2022/02/28 11:43:32;;;;;;;10.27;8.82;;;15.90;42.30;;;;;;5044869;28;20049;-62
2022/02/28 11:46:06;;;;;;;9.77;8.05;;;16.20;43.10;;;;;;5043090;28;20395;-62
2022/02/28 11:48:35;;;;;;;9.60;8.05;;;16.50;43.20;;;;;;5046547;28;20040;-62
2022/02/28 11:51:02;;;;;;;10.15;9.07;;;16.30;42.40;;;;;;5045706;28;20087;-62
2022/02/28 11:53:35;;;;;;;12.27;8.48;;;16.80;42.50;;;;;;5045258;28;20293;-61
2022/02/28 11:56:16;;;;;;;10.77;8.93;;;17.40;43.20;;;;;;5045371;28;20136;-61
2022/02/28 11:59:00;;;;;;;10.63;8.48;;;17.00;41.20;;;;;;5046528;28;20114;-62
2022/02/28 12:01:36;;;;;;;10.82;8.50;;;17.10;42.20;;;;;;5046283;28;20049;-62
2022/02/28 12:04:38;;;;;;;9.38;8.38;;;17.50;41.40;;;;;;5044420;28;20049;-61
2022/02/28 12:07:09;;;;;;;10.27;8.57;;;17.30;42.40;;;;;;5020206;28;20059;-61
2022/02/28 12:09:36;;;;;;;10.55;8.07;;;17.50;40.60;;;;;;5044687;28;20178;-62
2022/02/28 12:12:33;;;;;;;9.43;8.35;;;17.30;40.60;;;;;;5044858;28;20535;-62
2022/02/28 12:15:00;;;;;;;9.85;8.85;;;17.30;40.80;;;;;;5042311;28;20052;-62
2022/02/28 12:17:33;;;;;;;9.82;8.75;;;17.00;40.80;;;;;;5046259;28;20105;-61
2022/02/28 12:20:21;;;;;;;11.98;8.90;;;16.80;40.50;;;;;;5045284;28;20123;-62
2022/02/28 12:25:46;;;;;;;10.77;8.30;;;16.80;39.20;;;;;;5044549;28;20699;-64
2022/02/28 12:28:15;;;;;;;10.30;8.63;;;17.10;40.20;;;;;;5045072;28;20055;-62
2022/02/28 12:30:44;;;;;;;9.55;8.57;;;17.00;40.30;;;;;;5045920;28;20163;-62
2022/02/28 12:33:14;;;;;;;10.48;8.57;;;17.10;39.80;;;;;;5045722;28;20049;-62
2022/02/28 12:35:59;;;;;;;9.57;8.25;;;17.10;39.70;;;;;;5046050;28;20040;-62
2022/02/28 12:38:28;;;;;;;9.40;7.78;;;17.10;39.50;;;;;;5027139;28;20581;-61
2022/02/28 12:41:01;;;;;;;11.63;8.45;;;17.20;39.80;;;;;;5043879;28;20049;-62
2022/02/28 12:43:29;;;;;;;9.10;8.20;;;17.40;39.50;;;;;;5027131;28;20077;-62
2022/02/28 12:45:57;;;;;;;12.25;8.50;;;17.70;40.10;;;;;;5044596;28;20068;-62
2022/02/28 12:48:25;;;;;;;9.50;8.50;;;17.80;39.50;;;;;;5043712;28;20053;-62
2022/02/28 12:50:58;;;;;;;8.93;8.02;;;17.90;38.80;;;;;;5043987;28;20048;-62
2022/02/28 12:53:26;;;;;;;8.70;7.80;;;18.00;39.40;;;;;;5044783;28;20119;-62
2022/02/28 12:56:08;;;;;;;11.63;8.65;;;18.20;38.70;;;;;;5010535;28;20617;-62
2022/02/28 12:58:40;;;;;;;10.60;7.72;;;18.30;38.20;;;;;;5042812;28;20053;-62
2022/02/28 13:01:21;;;;;;;9.60;8.48;;;17.50;37.70;;;;;;5044195;28;20056;-61